SHARE
TWEET

Untitled

a guest Feb 16th, 2020 98 Never
Not a member of Pastebin yet? Sign Up, it unlocks many cool features!
  1. 2020-02-16 14:06:51.778 T:140735163388672  NOTICE: -----------------------------------------------------------------------
  2. 2020-02-16 14:06:51.778 T:140735163388672  NOTICE: Starting Kodi (18.5 Git:20191116-37f51f6e63). Platform: OS X x86 64-bit
  3. 2020-02-16 14:06:51.778 T:140735163388672  NOTICE: Using Release Kodi x64 build
  4. 2020-02-16 14:06:51.778 T:140735163388672  NOTICE: Kodi compiled 2019-11-16 by Clang 9.0.0 (clang-900.0.37) for OS X x86 64-bit version 10.9.0 (1090)
  5. 2020-02-16 14:06:51.778 T:140735163388672  NOTICE: Running on Apple Inc. Macmini7,1 with OS X 10.10.5, kernel: Darwin x86 64-bit version 14.5.0
  6. 2020-02-16 14:06:51.778 T:140735163388672  NOTICE: FFmpeg version/source: 4.0.4-Kodi
  7. 2020-02-16 14:06:51.778 T:140735163388672  NOTICE: Host CPU: Intel(R) Core(TM) i5-4260U CPU @ 1.40GHz, 4 cores available
  8. 2020-02-16 14:06:51.778 T:140735163388672  NOTICE: special://xbmc/ is mapped to: /Applications/Kodi.app/Contents/Resources/Kodi
  9. 2020-02-16 14:06:51.778 T:140735163388672  NOTICE: special://xbmcbin/ is mapped to: /Applications/Kodi.app/Contents/Resources/Kodi
  10. 2020-02-16 14:06:51.778 T:140735163388672  NOTICE: special://xbmcbinaddons/ is mapped to: /Applications/Kodi.app/Contents/Resources/Kodi/addons
  11. 2020-02-16 14:06:51.778 T:140735163388672  NOTICE: special://masterprofile/ is mapped to: /Users/user/Library/Application Support/Kodi/userdata
  12. 2020-02-16 14:06:51.778 T:140735163388672  NOTICE: special://envhome/ is mapped to: /Users/user
  13. 2020-02-16 14:06:51.778 T:140735163388672  NOTICE: special://home/ is mapped to: /Users/user/Library/Application Support/Kodi
  14. 2020-02-16 14:06:51.778 T:140735163388672  NOTICE: special://temp/ is mapped to: /Users/user/.kodi/temp
  15. 2020-02-16 14:06:51.778 T:140735163388672  NOTICE: special://logpath/ is mapped to: /Users/user/Library/Logs
  16. 2020-02-16 14:06:51.778 T:140735163388672  NOTICE: special://frameworks/ is mapped to: /Applications/Kodi.app/Contents/Libraries
  17. 2020-02-16 14:06:51.778 T:140735163388672  NOTICE: The executable running is: /Applications/Kodi.app/Contents/MacOS/Kodi
  18. 2020-02-16 14:06:51.778 T:140735163388672  NOTICE: Local hostname: Users-Mac-mini.local
  19. 2020-02-16 14:06:51.778 T:140735163388672  NOTICE: Log File is located: /Users/user/Library/Logs/kodi.log
  20. 2020-02-16 14:06:51.778 T:140735163388672  NOTICE: -----------------------------------------------------------------------
  21. 2020-02-16 14:07:20.975 T:4585779200   DEBUG: onExecutionDone(3, /Users/user/Library/Application Support/Kodi/addons/plugin.video.nba/main.py)
  22. 2020-02-16 14:07:20.975 T:4585242624   DEBUG: Thread waiting 4585242624 terminating
  23. 2020-02-16 14:07:21.000 T:140735163388672   DEBUG: ------ Window Deinit (DialogBusy.xml) ------
  24. 2020-02-16 14:07:21.000 T:140735163388672   DEBUG: Saving fileitems [plugin://plugin.video.nba/]
  25. 2020-02-16 14:07:21.000 T:140735163388672   DEBUG:   -- items: 5, sort method: 0, ascending: false
  26. 2020-02-16 14:07:21.006 T:4471369728   DEBUG: Thread BackgroundLoader start, auto delete: false
  27. 2020-02-16 14:07:21.017 T:4471369728   DEBUG: Thread BackgroundLoader 4471369728 terminating
  28. 2020-02-16 14:07:21.034 T:4585779200    INFO: Python interpreter stopped
  29. 2020-02-16 14:07:21.034 T:4585779200   DEBUG: Thread LanguageInvoker 4585779200 terminating
  30. 2020-02-16 14:07:21.803 T:4631015424   ERROR: EXCEPTION: XBMC is not playing any file
  31. 2020-02-16 14:07:24.294 T:140735163388672   ERROR: Previous line repeats 2 times.
  32. 2020-02-16 14:07:24.294 T:140735163388672   DEBUG: Keyboard: scancode: 0x7d, sym: 0x0112, unicode: 0xf701, modifier: 0x0
  33. 2020-02-16 14:07:24.295 T:140735163388672   DEBUG: HandleKey: down (0xf081) pressed, action is Down
  34. 2020-02-16 14:07:24.298 T:4610387968    INFO: easy_acquire - Created session to https://nbadsdmt.akamaized.net
  35. 2020-02-16 14:07:24.411 T:140735163388672   DEBUG: Keyboard: scancode: 0x7d, sym: 0x0112, unicode: 0x0000, modifier: 0x0
  36. 2020-02-16 14:07:24.809 T:4631015424   ERROR: EXCEPTION: XBMC is not playing any file
  37. 2020-02-16 14:07:25.735 T:140735163388672   DEBUG: Keyboard: scancode: 0x7d, sym: 0x0112, unicode: 0xf701, modifier: 0x0
  38. 2020-02-16 14:07:25.735 T:140735163388672   DEBUG: HandleKey: down (0xf081) pressed, action is Down
  39. 2020-02-16 14:07:25.810 T:4631015424   ERROR: EXCEPTION: XBMC is not playing any file
  40. 2020-02-16 14:07:25.870 T:140735163388672   DEBUG: Keyboard: scancode: 0x7d, sym: 0x0112, unicode: 0x0000, modifier: 0x0
  41. 2020-02-16 14:07:26.004 T:140735163388672   DEBUG: Keyboard: scancode: 0x24, sym: 0x000d, unicode: 0x000d, modifier: 0x0
  42. 2020-02-16 14:07:26.083 T:140735163388672   DEBUG: Keyboard: scancode: 0x24, sym: 0x000d, unicode: 0x0000, modifier: 0x0
  43. 2020-02-16 14:07:26.083 T:140735163388672   DEBUG: HandleKey: return (0xf00d) pressed, action is Select
  44. 2020-02-16 14:07:26.086 T:140735163388672   DEBUG: CGUIMediaWindow::GetDirectory (plugin://plugin.video.nba/?mode=archive&name=Games%20archive&url=archive)
  45. 2020-02-16 14:07:26.086 T:140735163388672   DEBUG:   ParentPath = [plugin://plugin.video.nba/]
  46. 2020-02-16 14:07:26.088 T:4585779200   DEBUG: Thread waiting start, auto delete: false
  47. 2020-02-16 14:07:26.089 T:4607549440   DEBUG: CAddonDatabase::SetLastUsed[plugin.video.nba] took 3 ms
  48. 2020-02-16 14:07:26.090 T:4585779200   DEBUG: StartScript - calling plugin NBA League Pass('plugin://plugin.video.nba/','2','?mode=archive&name=Games%20archive&url=archive','resume:false')
  49. 2020-02-16 14:07:26.090 T:4615782400   DEBUG: Thread JobWorker start, auto delete: true
  50. 2020-02-16 14:07:26.090 T:4631552000   DEBUG: Thread LanguageInvoker start, auto delete: false
  51. 2020-02-16 14:07:26.090 T:4631552000    INFO: initializing python engine.
  52. 2020-02-16 14:07:26.091 T:4631552000   DEBUG: CPythonInvoker(4, /Users/user/Library/Application Support/Kodi/addons/plugin.video.nba/main.py): start processing
  53. 2020-02-16 14:07:26.117 T:4631552000   DEBUG: -->Python Interpreter Initialized<--
  54. 2020-02-16 14:07:26.117 T:4631552000   DEBUG: CPythonInvoker(4, /Users/user/Library/Application Support/Kodi/addons/plugin.video.nba/main.py): the source file to load is "/Users/user/Library/Application Support/Kodi/addons/plugin.video.nba/main.py"
  55. 2020-02-16 14:07:26.119 T:4631552000   DEBUG: CPythonInvoker(4, /Users/user/Library/Application Support/Kodi/addons/plugin.video.nba/main.py): setting the Python path to /Users/user/Library/Application Support/Kodi/addons/plugin.video.nba:/Applications/Kodi.app/Contents/Resources/Kodi/addons/script.module.pil/lib:/Users/user/Library/Application Support/Kodi/addons/script.common.plugin.cache/resources/lib/storage_server/:/Users/user/Library/Application Support/Kodi/addons/script.module.dateutil/lib:/Users/user/Library/Application Support/Kodi/addons/script.module.inputstreamhelper/lib:/Users/user/Library/Application Support/Kodi/addons/script.module.pytz/lib:/Users/user/Library/Application Support/Kodi/addons/script.module.six/lib:/Applications/Kodi.app/Contents/Libraries/lib/python2.7/site-packages/setuptools-18.4-py2.7.egg:/Applications/Kodi.app/Contents/Libraries/lib/python2.7/site-packages/Pillow-3.0.0-py2.7-macosx-10.14-x86_64.egg:/Applications/Kodi.app/Contents/Libraries:/Applications/Kodi.app/Contents/Libraries/lib/python27.zip:/Applications/Kodi.app/Contents/Libraries/lib/python2.7:/Applications/Kodi.app/Contents/Libraries/lib/python2.7/site-packages:/Applications/Kodi.app/Contents/Libraries/lib/python2.7/plat-darwin:/Applications/Kodi.app/Contents/Libraries/lib/python2.7/plat-mac:/Applications/Kodi.app/Contents/Libraries/lib/python2.7/plat-mac/lib-scriptpackages:/Applications/Kodi.app/Contents/Libraries/lib/python2.7/lib-tk:/Applications/Kodi.app/Contents/Libraries/lib/python2.7/lib-old:/Applications/Kodi.app/Contents/Libraries/lib/python2.7/lib-dynload
  56. 2020-02-16 14:07:26.119 T:4631552000   DEBUG: CPythonInvoker(4, /Users/user/Library/Application Support/Kodi/addons/plugin.video.nba/main.py): entering source directory /Users/user/Library/Application Support/Kodi/addons/plugin.video.nba
  57. 2020-02-16 14:07:26.119 T:4631552000   DEBUG: CPythonInvoker(4, /Users/user/Library/Application Support/Kodi/addons/plugin.video.nba/main.py): instantiating addon using automatically obtained id of "plugin.video.nba" dependent on version 2.20.0 of the xbmc.python api
  58. 2020-02-16 14:07:26.188 T:140735163388672   DEBUG: ------ Window Init (DialogBusy.xml) ------
  59. 2020-02-16 14:07:26.839 T:4631015424   ERROR: EXCEPTION: XBMC is not playing any file
  60. 2020-02-16 14:07:27.375 T:4631552000   DEBUG: CAddonSettings[script.common.plugin.cache]: loading setting definitions
  61. 2020-02-16 14:07:27.375 T:4631552000   DEBUG: CAddonSettings[script.common.plugin.cache]: trying to load setting definitions from old format...
  62. 2020-02-16 14:07:27.378 T:4631552000   DEBUG: CAddonSettings[plugin.video.nba]: loading setting definitions
  63. 2020-02-16 14:07:27.378 T:4631552000   DEBUG: CAddonSettings[plugin.video.nba]: trying to load setting definitions from old format...
  64. 2020-02-16 14:07:27.380 T:4631552000   DEBUG: CAddonSettings[plugin.video.nba]: loading setting values
  65. 2020-02-16 14:07:27.381 T:4631552000   DEBUG: CAddonSettings[script.common.plugin.cache]: loading setting definitions
  66. 2020-02-16 14:07:27.381 T:4631552000   DEBUG: CAddonSettings[script.common.plugin.cache]: trying to load setting definitions from old format...
  67. 2020-02-16 14:07:27.463 T:4631552000   DEBUG: CAddonSettings[plugin.video.nba]: loading setting definitions
  68. 2020-02-16 14:07:27.463 T:4631552000   DEBUG: CAddonSettings[plugin.video.nba]: trying to load setting definitions from old format...
  69. 2020-02-16 14:07:27.465 T:4631552000   DEBUG: CAddonSettings[plugin.video.nba]: loading setting values
  70. 2020-02-16 14:07:27.710 T:4631552000    INFO: CPythonInvoker(4, /Users/user/Library/Application Support/Kodi/addons/plugin.video.nba/main.py): script successfully run
  71. 2020-02-16 14:07:27.712 T:4585779200   DEBUG: Thread waiting 4585779200 terminating
  72. 2020-02-16 14:07:27.712 T:4631552000   DEBUG: onExecutionDone(4, /Users/user/Library/Application Support/Kodi/addons/plugin.video.nba/main.py)
  73. 2020-02-16 14:07:27.720 T:140735163388672   DEBUG: ------ Window Deinit (DialogBusy.xml) ------
  74. 2020-02-16 14:07:27.721 T:140735163388672   DEBUG: Saving fileitems [plugin://plugin.video.nba/?mode=archive&name=Games%20archive&url=archive]
  75. 2020-02-16 14:07:27.723 T:140735163388672   DEBUG:   -- items: 10, sort method: 0, ascending: false
  76. 2020-02-16 14:07:27.729 T:4569317376   DEBUG: Thread BackgroundLoader start, auto delete: false
  77. 2020-02-16 14:07:27.741 T:4569317376   DEBUG: Thread BackgroundLoader 4569317376 terminating
  78. 2020-02-16 14:07:27.794 T:4631552000    INFO: Python interpreter stopped
  79. 2020-02-16 14:07:27.794 T:4631552000   DEBUG: Thread LanguageInvoker 4631552000 terminating
  80. 2020-02-16 14:07:27.843 T:4631015424   ERROR: EXCEPTION: XBMC is not playing any file
  81. 2020-02-16 14:07:28.541 T:140735163388672   DEBUG: Keyboard: scancode: 0x7d, sym: 0x0112, unicode: 0xf701, modifier: 0x0
  82. 2020-02-16 14:07:28.542 T:140735163388672   DEBUG: HandleKey: down (0xf081) pressed, action is Down
  83. 2020-02-16 14:07:28.683 T:140735163388672   DEBUG: Keyboard: scancode: 0x7d, sym: 0x0112, unicode: 0x0000, modifier: 0x0
  84. 2020-02-16 14:07:28.845 T:4631015424   ERROR: EXCEPTION: XBMC is not playing any file
  85. 2020-02-16 14:07:28.882 T:140735163388672   DEBUG: Keyboard: scancode: 0x24, sym: 0x000d, unicode: 0x000d, modifier: 0x0
  86. 2020-02-16 14:07:28.926 T:140735163388672   DEBUG: Keyboard: scancode: 0x24, sym: 0x000d, unicode: 0x0000, modifier: 0x0
  87. 2020-02-16 14:07:28.926 T:140735163388672   DEBUG: HandleKey: return (0xf00d) pressed, action is Select
  88. 2020-02-16 14:07:28.931 T:140735163388672   DEBUG: CGUIMediaWindow::GetDirectory (plugin://plugin.video.nba/?mode=thisweek&name=This%20week&url=archive)
  89. 2020-02-16 14:07:28.932 T:140735163388672   DEBUG:   ParentPath = [plugin://plugin.video.nba/?mode=archive&name=Games%20archive&url=archive]
  90. 2020-02-16 14:07:28.933 T:4569317376   DEBUG: Thread waiting start, auto delete: false
  91. 2020-02-16 14:07:28.935 T:4615782400   DEBUG: CAddonDatabase::SetLastUsed[plugin.video.nba] took 2 ms
  92. 2020-02-16 14:07:28.935 T:4569317376   DEBUG: StartScript - calling plugin NBA League Pass('plugin://plugin.video.nba/','3','?mode=thisweek&name=This%20week&url=archive','resume:false')
  93. 2020-02-16 14:07:28.936 T:4571361280   DEBUG: Thread JobWorker start, auto delete: true
  94. 2020-02-16 14:07:28.936 T:4571897856   DEBUG: Thread LanguageInvoker start, auto delete: false
  95. 2020-02-16 14:07:28.936 T:4571897856    INFO: initializing python engine.
  96. 2020-02-16 14:07:28.936 T:4571897856   DEBUG: CPythonInvoker(5, /Users/user/Library/Application Support/Kodi/addons/plugin.video.nba/main.py): start processing
  97. 2020-02-16 14:07:28.964 T:4571897856   DEBUG: -->Python Interpreter Initialized<--
  98. 2020-02-16 14:07:28.964 T:4571897856   DEBUG: CPythonInvoker(5, /Users/user/Library/Application Support/Kodi/addons/plugin.video.nba/main.py): the source file to load is "/Users/user/Library/Application Support/Kodi/addons/plugin.video.nba/main.py"
  99. 2020-02-16 14:07:28.965 T:4571897856   DEBUG: CPythonInvoker(5, /Users/user/Library/Application Support/Kodi/addons/plugin.video.nba/main.py): setting the Python path to /Users/user/Library/Application Support/Kodi/addons/plugin.video.nba:/Applications/Kodi.app/Contents/Resources/Kodi/addons/script.module.pil/lib:/Users/user/Library/Application Support/Kodi/addons/script.common.plugin.cache/resources/lib/storage_server/:/Users/user/Library/Application Support/Kodi/addons/script.module.dateutil/lib:/Users/user/Library/Application Support/Kodi/addons/script.module.inputstreamhelper/lib:/Users/user/Library/Application Support/Kodi/addons/script.module.pytz/lib:/Users/user/Library/Application Support/Kodi/addons/script.module.six/lib:/Applications/Kodi.app/Contents/Libraries/lib/python2.7/site-packages/setuptools-18.4-py2.7.egg:/Applications/Kodi.app/Contents/Libraries/lib/python2.7/site-packages/Pillow-3.0.0-py2.7-macosx-10.14-x86_64.egg:/Applications/Kodi.app/Contents/Libraries:/Applications/Kodi.app/Contents/Libraries/lib/python27.zip:/Applications/Kodi.app/Contents/Libraries/lib/python2.7:/Applications/Kodi.app/Contents/Libraries/lib/python2.7/site-packages:/Applications/Kodi.app/Contents/Libraries/lib/python2.7/plat-darwin:/Applications/Kodi.app/Contents/Libraries/lib/python2.7/plat-mac:/Applications/Kodi.app/Contents/Libraries/lib/python2.7/plat-mac/lib-scriptpackages:/Applications/Kodi.app/Contents/Libraries/lib/python2.7/lib-tk:/Applications/Kodi.app/Contents/Libraries/lib/python2.7/lib-old:/Applications/Kodi.app/Contents/Libraries/lib/python2.7/lib-dynload
  100. 2020-02-16 14:07:28.965 T:4571897856   DEBUG: CPythonInvoker(5, /Users/user/Library/Application Support/Kodi/addons/plugin.video.nba/main.py): entering source directory /Users/user/Library/Application Support/Kodi/addons/plugin.video.nba
  101. 2020-02-16 14:07:28.965 T:4571897856   DEBUG: CPythonInvoker(5, /Users/user/Library/Application Support/Kodi/addons/plugin.video.nba/main.py): instantiating addon using automatically obtained id of "plugin.video.nba" dependent on version 2.20.0 of the xbmc.python api
  102. 2020-02-16 14:07:29.033 T:140735163388672   DEBUG: ------ Window Init (DialogBusy.xml) ------
  103. 2020-02-16 14:07:29.562 T:4610387968   DEBUG: GetImageHash - unable to stat url https://nbadsdmt.akamaized.net/media/nba/nba/thumbs/dl/14510_pc.jpg
  104. 2020-02-16 14:07:29.851 T:4631015424   ERROR: EXCEPTION: XBMC is not playing any file
  105. 2020-02-16 14:07:29.861 T:4571897856   DEBUG: CAddonSettings[script.common.plugin.cache]: loading setting definitions
  106. 2020-02-16 14:07:29.862 T:4571897856   DEBUG: CAddonSettings[script.common.plugin.cache]: trying to load setting definitions from old format...
  107. 2020-02-16 14:07:29.863 T:4571897856   DEBUG: CAddonSettings[plugin.video.nba]: loading setting definitions
  108. 2020-02-16 14:07:29.863 T:4571897856   DEBUG: CAddonSettings[plugin.video.nba]: trying to load setting definitions from old format...
  109. 2020-02-16 14:07:29.864 T:4571897856   DEBUG: CAddonSettings[plugin.video.nba]: loading setting values
  110. 2020-02-16 14:07:29.865 T:4571897856   DEBUG: CAddonSettings[script.common.plugin.cache]: loading setting definitions
  111. 2020-02-16 14:07:29.865 T:4571897856   DEBUG: CAddonSettings[script.common.plugin.cache]: trying to load setting definitions from old format...
  112. 2020-02-16 14:07:30.027 T:4571897856    INFO: ##### NBA League Pass: UTC datetime: 2020-02-16 22:07:30.024630
  113. 2020-02-16 14:07:30.027 T:4571897856    INFO: ##### NBA League Pass: EST datetime: 2020-02-16 17:07:30.024630
  114. 2020-02-16 14:07:30.862 T:4631015424   ERROR: EXCEPTION: XBMC is not playing any file
  115. 2020-02-16 14:07:31.724 T:4571897856   DEBUG: CAddonSettings[plugin.video.nba]: loading setting definitions
  116. 2020-02-16 14:07:31.724 T:4571897856   DEBUG: CAddonSettings[plugin.video.nba]: trying to load setting definitions from old format...
  117. 2020-02-16 14:07:31.726 T:4571897856   DEBUG: CAddonSettings[plugin.video.nba]: loading setting values
  118. 2020-02-16 14:07:31.863 T:4631015424   ERROR: EXCEPTION: XBMC is not playing any file
  119. 2020-02-16 14:07:33.389 T:4571897856   ERROR: Previous line repeats 1 times.
  120. 2020-02-16 14:07:33.389 T:4571897856   ERROR: ##### NBA League Pass: Traceback (most recent call last):
  121.                                               File "/Users/user/Library/Application Support/Kodi/addons/plugin.video.nba/src/utils.py", line 190, in generateCombinedThumbnail
  122.                                                 for single_thumbnail_fullname in single_thumbnail_fullnames]
  123.                                               File "/Applications/Kodi.app/Contents/Libraries/lib/python2.7/site-packages/Pillow-3.0.0-py2.7-macosx-10.14-x86_64.egg/PIL/Image.py", line 2286, in open
  124.                                                 % (filename if filename else fp))
  125.                                             IOError: cannot identify image file u'/Users/user/Library/Application Support/Kodi/userdata/addon_data/plugin.video.nba/thumbnails/wld.png'
  126. 2020-02-16 14:07:33.592 T:4571897856   ERROR: ##### NBA League Pass: Traceback (most recent call last):
  127.                                               File "/Users/user/Library/Application Support/Kodi/addons/plugin.video.nba/src/utils.py", line 190, in generateCombinedThumbnail
  128.                                                 for single_thumbnail_fullname in single_thumbnail_fullnames]
  129.                                               File "/Applications/Kodi.app/Contents/Libraries/lib/python2.7/site-packages/Pillow-3.0.0-py2.7-macosx-10.14-x86_64.egg/PIL/Image.py", line 2286, in open
  130.                                                 % (filename if filename else fp))
  131.                                             IOError: cannot identify image file u'/Users/user/Library/Application Support/Kodi/userdata/addon_data/plugin.video.nba/thumbnails/lbn.png'
  132. 2020-02-16 14:07:33.593 T:4571897856 WARNING: ##### NBA League Pass: Unknown teams: {'': ['2020-02-14', '2020-02-14', '2020-02-14', '2020-02-14', '2020-02-15', '2020-02-15', '2020-02-15', '2020-02-15', '2020-02-15', '2020-02-15', '2020-02-15', '2020-02-15', '2020-02-15', '2020-02-15', '2020-02-16', '2020-02-16', '2020-02-16', '2020-02-16'], u'GNS': ['2020-02-16'], u'LBN': ['2020-02-16']}
  133. 2020-02-16 14:07:33.594 T:4571897856    INFO: CPythonInvoker(5, /Users/user/Library/Application Support/Kodi/addons/plugin.video.nba/main.py): script successfully run
  134. 2020-02-16 14:07:33.594 T:4571897856   DEBUG: onExecutionDone(5, /Users/user/Library/Application Support/Kodi/addons/plugin.video.nba/main.py)
  135. 2020-02-16 14:07:33.598 T:4569317376   DEBUG: Thread waiting 4569317376 terminating
  136. 2020-02-16 14:07:33.601 T:140735163388672   DEBUG: ------ Window Deinit (DialogBusy.xml) ------
  137. 2020-02-16 14:07:33.601 T:140735163388672   DEBUG: Saving fileitems [plugin://plugin.video.nba/?mode=thisweek&name=This%20week&url=archive]
  138. 2020-02-16 14:07:33.603 T:140735163388672   DEBUG:   -- items: 35, sort method: 0, ascending: false
  139. 2020-02-16 14:07:33.609 T:4569317376   DEBUG: Thread BackgroundLoader start, auto delete: false
  140. 2020-02-16 14:07:33.633 T:4569317376   DEBUG: Thread BackgroundLoader 4569317376 terminating
  141. 2020-02-16 14:07:33.654 T:140735163388672   DEBUG: ffmpeg[7FFF756BD300]: [swscaler] Forcing full internal H chroma due to input having non subsampled chroma
  142. 2020-02-16 14:07:33.667 T:4571897856    INFO: Python interpreter stopped
  143. 2020-02-16 14:07:33.667 T:4571897856   DEBUG: Thread LanguageInvoker 4571897856 terminating
  144. 2020-02-16 14:07:33.671 T:140735163388672   DEBUG: ffmpeg[7FFF756BD300]: [swscaler] Forcing full internal H chroma due to input having non subsampled chroma
  145. 2020-02-16 14:07:33.899 T:4631015424   DEBUG: Previous line repeats 10 times.
  146. 2020-02-16 14:07:33.900 T:4631015424   ERROR: EXCEPTION: XBMC is not playing any file
  147. 2020-02-16 14:07:34.816 T:140735163388672   DEBUG: Keyboard: scancode: 0x7d, sym: 0x0112, unicode: 0xf701, modifier: 0x0
  148. 2020-02-16 14:07:34.816 T:140735163388672   DEBUG: HandleKey: down (0xf081) pressed, action is Down
  149. 2020-02-16 14:07:34.902 T:4631015424   ERROR: EXCEPTION: XBMC is not playing any file
  150. 2020-02-16 14:07:34.996 T:140735163388672   DEBUG: Keyboard: scancode: 0x7d, sym: 0x0112, unicode: 0x0000, modifier: 0x0
  151. 2020-02-16 14:07:35.313 T:140735163388672   DEBUG: Keyboard: scancode: 0x24, sym: 0x000d, unicode: 0x000d, modifier: 0x0
  152. 2020-02-16 14:07:35.467 T:140735163388672   DEBUG: Keyboard: scancode: 0x24, sym: 0x000d, unicode: 0x0000, modifier: 0x0
  153. 2020-02-16 14:07:35.467 T:140735163388672   DEBUG: HandleKey: return (0xf00d) pressed, action is Select
  154. 2020-02-16 14:07:35.470 T:140735163388672   DEBUG: CGUIMediaWindow::GetDirectory (plugin://plugin.video.nba/?duration=8222000&end_time=1581387442000&has_away_feed=1&has_condensed_game=1&home_team=Pistons&mode=gamechoosevideo&name=2020-02-10%20Hornets%20vs%20Pistons&seo_name=20200210%2fCHADET&start_time=1581379220000&url&video_id=0021900793&video_type=archive&visitor_team=Hornets)
  155. 2020-02-16 14:07:35.470 T:140735163388672   DEBUG:   ParentPath = [plugin://plugin.video.nba/?mode=thisweek&name=This%20week&url=archive]
  156. 2020-02-16 14:07:35.472 T:4446392320   DEBUG: Thread waiting start, auto delete: false
  157. 2020-02-16 14:07:35.472 T:4610387968   DEBUG: CAddonDatabase::SetLastUsed[plugin.video.nba] took 2 ms
  158. 2020-02-16 14:07:35.474 T:4446392320   DEBUG: StartScript - calling plugin NBA League Pass('plugin://plugin.video.nba/','4','?duration=8222000&end_time=1581387442000&has_away_feed=1&has_condensed_game=1&home_team=Pistons&mode=gamechoosevideo&name=2020-02-10%20Hornets%20vs%20Pistons&seo_name=20200210%2fCHADET&start_time=1581379220000&url&video_id=0021900793&video_type=archive&visitor_team=Hornets','resume:false')
  159. 2020-02-16 14:07:35.475 T:4569600000   DEBUG: Thread LanguageInvoker start, auto delete: false
  160. 2020-02-16 14:07:35.475 T:4569600000    INFO: initializing python engine.
  161. 2020-02-16 14:07:35.475 T:4569600000   DEBUG: CPythonInvoker(6, /Users/user/Library/Application Support/Kodi/addons/plugin.video.nba/main.py): start processing
  162. 2020-02-16 14:07:35.500 T:4569600000   DEBUG: -->Python Interpreter Initialized<--
  163. 2020-02-16 14:07:35.500 T:4569600000   DEBUG: CPythonInvoker(6, /Users/user/Library/Application Support/Kodi/addons/plugin.video.nba/main.py): the source file to load is "/Users/user/Library/Application Support/Kodi/addons/plugin.video.nba/main.py"
  164. 2020-02-16 14:07:35.501 T:4569600000   DEBUG: CPythonInvoker(6, /Users/user/Library/Application Support/Kodi/addons/plugin.video.nba/main.py): setting the Python path to /Users/user/Library/Application Support/Kodi/addons/plugin.video.nba:/Applications/Kodi.app/Contents/Resources/Kodi/addons/script.module.pil/lib:/Users/user/Library/Application Support/Kodi/addons/script.common.plugin.cache/resources/lib/storage_server/:/Users/user/Library/Application Support/Kodi/addons/script.module.dateutil/lib:/Users/user/Library/Application Support/Kodi/addons/script.module.inputstreamhelper/lib:/Users/user/Library/Application Support/Kodi/addons/script.module.pytz/lib:/Users/user/Library/Application Support/Kodi/addons/script.module.six/lib:/Applications/Kodi.app/Contents/Libraries/lib/python2.7/site-packages/setuptools-18.4-py2.7.egg:/Applications/Kodi.app/Contents/Libraries/lib/python2.7/site-packages/Pillow-3.0.0-py2.7-macosx-10.14-x86_64.egg:/Applications/Kodi.app/Contents/Libraries:/Applications/Kodi.app/Contents/Libraries/lib/python27.zip:/Applications/Kodi.app/Contents/Libraries/lib/python2.7:/Applications/Kodi.app/Contents/Libraries/lib/python2.7/site-packages:/Applications/Kodi.app/Contents/Libraries/lib/python2.7/plat-darwin:/Applications/Kodi.app/Contents/Libraries/lib/python2.7/plat-mac:/Applications/Kodi.app/Contents/Libraries/lib/python2.7/plat-mac/lib-scriptpackages:/Applications/Kodi.app/Contents/Libraries/lib/python2.7/lib-tk:/Applications/Kodi.app/Contents/Libraries/lib/python2.7/lib-old:/Applications/Kodi.app/Contents/Libraries/lib/python2.7/lib-dynload
  165. 2020-02-16 14:07:35.501 T:4569600000   DEBUG: CPythonInvoker(6, /Users/user/Library/Application Support/Kodi/addons/plugin.video.nba/main.py): entering source directory /Users/user/Library/Application Support/Kodi/addons/plugin.video.nba
  166. 2020-02-16 14:07:35.502 T:4569600000   DEBUG: CPythonInvoker(6, /Users/user/Library/Application Support/Kodi/addons/plugin.video.nba/main.py): instantiating addon using automatically obtained id of "plugin.video.nba" dependent on version 2.20.0 of the xbmc.python api
  167. 2020-02-16 14:07:35.573 T:140735163388672   DEBUG: ------ Window Init (DialogBusy.xml) ------
  168. 2020-02-16 14:07:35.919 T:4631015424   ERROR: EXCEPTION: XBMC is not playing any file
  169. 2020-02-16 14:07:36.044 T:4615782400   DEBUG: GetImageHash - unable to stat url https://nbadsdmt.akamaized.net/media/nba/nba/thumbs/dl/14510_pc.jpg
  170. 2020-02-16 14:07:36.256 T:4569600000   DEBUG: CAddonSettings[script.common.plugin.cache]: loading setting definitions
  171. 2020-02-16 14:07:36.256 T:4569600000   DEBUG: CAddonSettings[script.common.plugin.cache]: trying to load setting definitions from old format...
  172. 2020-02-16 14:07:36.258 T:4569600000   DEBUG: CAddonSettings[plugin.video.nba]: loading setting definitions
  173. 2020-02-16 14:07:36.258 T:4569600000   DEBUG: CAddonSettings[plugin.video.nba]: trying to load setting definitions from old format...
  174. 2020-02-16 14:07:36.259 T:4569600000   DEBUG: CAddonSettings[plugin.video.nba]: loading setting values
  175. 2020-02-16 14:07:36.263 T:4569600000   DEBUG: CAddonSettings[script.common.plugin.cache]: loading setting definitions
  176. 2020-02-16 14:07:36.263 T:4569600000   DEBUG: CAddonSettings[script.common.plugin.cache]: trying to load setting definitions from old format...
  177. 2020-02-16 14:07:36.290 T:4569600000    INFO: ##### NBA League Pass: Fetching http://watch.nba.com/game/20200210/CHADET?format=json
  178. 2020-02-16 14:07:36.921 T:4631015424   ERROR: EXCEPTION: XBMC is not playing any file
  179. 2020-02-16 14:07:39.603 T:4569600000   ERROR: Previous line repeats 2 times.
  180. 2020-02-16 14:07:39.603 T:4569600000    INFO: ##### NBA League Pass: Fetching https://watch.nba.com/service/config?format=json&cameras=true
  181. 2020-02-16 14:07:39.930 T:4631015424   ERROR: EXCEPTION: XBMC is not playing any file
  182. 2020-02-16 14:07:40.670 T:140735163388672   DEBUG: ------ Window Init (Pointer.xml) ------
  183. 2020-02-16 14:07:40.689 T:140735163388672   DEBUG: ------ Window Deinit (Pointer.xml) ------
  184. 2020-02-16 14:07:40.933 T:4631015424   ERROR: EXCEPTION: XBMC is not playing any file
  185. 2020-02-16 14:07:41.294 T:4569600000   DEBUG: CAddonSettings[plugin.video.nba]: loading setting definitions
  186. 2020-02-16 14:07:41.294 T:4569600000   DEBUG: CAddonSettings[plugin.video.nba]: trying to load setting definitions from old format...
  187. 2020-02-16 14:07:41.295 T:4569600000   DEBUG: CAddonSettings[plugin.video.nba]: loading setting values
  188. 2020-02-16 14:07:41.938 T:4631015424   ERROR: EXCEPTION: XBMC is not playing any file
  189. 2020-02-16 14:07:43.020 T:4569600000   ERROR: Previous line repeats 1 times.
  190. 2020-02-16 14:07:43.020 T:4569600000 WARNING: Attempt to use invalid handle 4
  191. 2020-02-16 14:07:43.020 T:4569600000    INFO: CPythonInvoker(6, /Users/user/Library/Application Support/Kodi/addons/plugin.video.nba/main.py): script successfully run
  192. 2020-02-16 14:07:43.020 T:4569600000   DEBUG: onExecutionDone(6, /Users/user/Library/Application Support/Kodi/addons/plugin.video.nba/main.py)
  193. 2020-02-16 14:07:43.028 T:4446392320   DEBUG: Thread waiting 4446392320 terminating
  194. 2020-02-16 14:07:43.032 T:140735163388672   DEBUG: ------ Window Deinit (DialogBusy.xml) ------
  195. 2020-02-16 14:07:43.033 T:140735163388672   DEBUG: Saving fileitems [plugin://plugin.video.nba/?duration=8222000&end_time=1581387442000&has_away_feed=1&has_condensed_game=1&home_team=Pistons&mode=gamechoosevideo&name=2020-02-10%20Hornets%20vs%20Pistons&seo_name=20200210%2fCHADET&start_time=1581379220000&url&video_id=0021900793&video_type=archive&visitor_team=Hornets]
  196. 2020-02-16 14:07:43.037 T:140735163388672   DEBUG:   -- items: 6, sort method: 0, ascending: false
  197. 2020-02-16 14:07:43.047 T:4446392320   DEBUG: Thread BackgroundLoader start, auto delete: false
  198. 2020-02-16 14:07:43.061 T:4571361280   DEBUG: DoWork - trying to extract thumb from video file plugin://plugin.video.nba/?game_state=3&name=Full+game%2C+home+feed+%28Pistons%29&url=&start_time=1581379220000&video_id=0021900793&video_type=archive&mode=playgame&duration=8222000&video_ishomefeed=1
  199. 2020-02-16 14:07:43.063 T:4571361280 WARNING: CreateLoader - unsupported protocol(plugin) in plugin://plugin.video.nba/?game_state=3&name=Full+game%2C+home+feed+%28Pistons%29&url=&start_time=1581379220000&video_id=0021900793&video_type=archive&mode=playgame&duration=8222000&video_ishomefeed=1
  200. 2020-02-16 14:07:43.063 T:4571361280   ERROR: InputStream: Error opening, plugin://plugin.video.nba/?game_state=3&name=Full+game%2C+home+feed+%28Pistons%29&url=&start_time=1581379220000&video_id=0021900793&video_type=archive&mode=playgame&duration=8222000&video_ishomefeed=1
  201. 2020-02-16 14:07:43.068 T:4571361280   DEBUG: DoWork - trying to extract thumb from video file plugin://plugin.video.nba/?game_state=3&name=Full+game%2C+away+feed+%28Hornets%29&url=&start_time=1581379220000&video_id=0021900793&video_type=archive&mode=playgame&duration=8222000&video_ishomefeed=0
  202. 2020-02-16 14:07:43.069 T:4571361280 WARNING: CreateLoader - unsupported protocol(plugin) in plugin://plugin.video.nba/?game_state=3&name=Full+game%2C+away+feed+%28Hornets%29&url=&start_time=1581379220000&video_id=0021900793&video_type=archive&mode=playgame&duration=8222000&video_ishomefeed=0
  203. 2020-02-16 14:07:43.069 T:4571361280   ERROR: InputStream: Error opening, plugin://plugin.video.nba/?game_state=3&name=Full+game%2C+away+feed+%28Hornets%29&url=&start_time=1581379220000&video_id=0021900793&video_type=archive&mode=playgame&duration=8222000&video_ishomefeed=0
  204. 2020-02-16 14:07:43.070 T:4571361280   DEBUG: DoWork - trying to extract thumb from video file plugin://plugin.video.nba/?game_state=3&name=Camera+16%3A+Mobile+View+%28Preferred%29&camera_number=16&url=&start_time=1581379220000&video_id=0021900793&video_type=archive&mode=playgame&duration=8222000
  205. 2020-02-16 14:07:43.072 T:4571361280 WARNING: CreateLoader - unsupported protocol(plugin) in plugin://plugin.video.nba/?game_state=3&name=Camera+16%3A+Mobile+View+%28Preferred%29&camera_number=16&url=&start_time=1581379220000&video_id=0021900793&video_type=archive&mode=playgame&duration=8222000
  206. 2020-02-16 14:07:43.072 T:4571361280   ERROR: InputStream: Error opening, plugin://plugin.video.nba/?game_state=3&name=Camera+16%3A+Mobile+View+%28Preferred%29&camera_number=16&url=&start_time=1581379220000&video_id=0021900793&video_type=archive&mode=playgame&duration=8222000
  207. 2020-02-16 14:07:43.073 T:4615782400   DEBUG: DoWork - trying to extract thumb from video file plugin://plugin.video.nba/?game_state=3&mode=playgame&url=&video_id=0021900793&video_type=condensed&name=Condensed+game
  208. 2020-02-16 14:07:43.074 T:4446392320   DEBUG: Thread BackgroundLoader 4446392320 terminating
  209. 2020-02-16 14:07:43.074 T:4615782400 WARNING: CreateLoader - unsupported protocol(plugin) in plugin://plugin.video.nba/?game_state=3&mode=playgame&url=&video_id=0021900793&video_type=condensed&name=Condensed+game
  210. 2020-02-16 14:07:43.074 T:4615782400   ERROR: InputStream: Error opening, plugin://plugin.video.nba/?game_state=3&mode=playgame&url=&video_id=0021900793&video_type=condensed&name=Condensed+game
  211. 2020-02-16 14:07:43.076 T:4615782400   DEBUG: DoWork - trying to extract thumb from video file plugin://plugin.video.nba/?game_state=3&name=Camera+12%3A+Audio+Home&camera_number=12&url=&start_time=1581379220000&video_id=0021900793&video_type=archive&mode=playgame&duration=8222000
  212. 2020-02-16 14:07:43.077 T:4615782400 WARNING: CreateLoader - unsupported protocol(plugin) in plugin://plugin.video.nba/?game_state=3&name=Camera+12%3A+Audio+Home&camera_number=12&url=&start_time=1581379220000&video_id=0021900793&video_type=archive&mode=playgame&duration=8222000
  213. 2020-02-16 14:07:43.077 T:4615782400   ERROR: InputStream: Error opening, plugin://plugin.video.nba/?game_state=3&name=Camera+12%3A+Audio+Home&camera_number=12&url=&start_time=1581379220000&video_id=0021900793&video_type=archive&mode=playgame&duration=8222000
  214. 2020-02-16 14:07:43.101 T:4569600000    INFO: Python interpreter stopped
  215. 2020-02-16 14:07:43.101 T:4569600000   DEBUG: Thread LanguageInvoker 4569600000 terminating
  216. 2020-02-16 14:07:43.944 T:4631015424   ERROR: EXCEPTION: XBMC is not playing any file
  217. 2020-02-16 14:07:49.507 T:140735163388672   ERROR: Previous line repeats 5 times.
  218. 2020-02-16 14:07:49.507 T:140735163388672   DEBUG: ------ Window Init (Pointer.xml) ------
  219. 2020-02-16 14:07:49.960 T:4631015424   ERROR: EXCEPTION: XBMC is not playing any file
  220. 2020-02-16 14:07:50.376 T:140735163388672   DEBUG: ProcessMouse: trying mouse action leftclick
  221. 2020-02-16 14:07:50.386 T:140735163388672   DEBUG: OnPlayMedia plugin://plugin.video.nba/?game_state=3&name=Full+game%2C+home+feed+%28Pistons%29&url=&start_time=1581379220000&video_id=0021900793&video_type=archive&mode=playgame&duration=8222000&video_ishomefeed=1
  222. 2020-02-16 14:07:50.389 T:140735163388672   DEBUG: StartScript - calling plugin NBA League Pass('plugin://plugin.video.nba/','5','?game_state=3&name=Full+game%2C+home+feed+%28Pistons%29&url=&start_time=1581379220000&video_id=0021900793&video_type=archive&mode=playgame&duration=8222000&video_ishomefeed=1','resume:false')
  223. 2020-02-16 14:07:50.390 T:4569317376   DEBUG: Thread LanguageInvoker start, auto delete: false
  224. 2020-02-16 14:07:50.390 T:4569317376    INFO: initializing python engine.
  225. 2020-02-16 14:07:50.390 T:4569317376   DEBUG: CPythonInvoker(7, /Users/user/Library/Application Support/Kodi/addons/plugin.video.nba/main.py): start processing
  226. 2020-02-16 14:07:50.410 T:4446392320   DEBUG: Thread scriptobs start, auto delete: false
  227. 2020-02-16 14:07:50.419 T:4569317376   DEBUG: -->Python Interpreter Initialized<--
  228. 2020-02-16 14:07:50.419 T:4569317376   DEBUG: CPythonInvoker(7, /Users/user/Library/Application Support/Kodi/addons/plugin.video.nba/main.py): the source file to load is "/Users/user/Library/Application Support/Kodi/addons/plugin.video.nba/main.py"
  229. 2020-02-16 14:07:50.420 T:4569317376   DEBUG: CPythonInvoker(7, /Users/user/Library/Application Support/Kodi/addons/plugin.video.nba/main.py): setting the Python path to /Users/user/Library/Application Support/Kodi/addons/plugin.video.nba:/Applications/Kodi.app/Contents/Resources/Kodi/addons/script.module.pil/lib:/Users/user/Library/Application Support/Kodi/addons/script.common.plugin.cache/resources/lib/storage_server/:/Users/user/Library/Application Support/Kodi/addons/script.module.dateutil/lib:/Users/user/Library/Application Support/Kodi/addons/script.module.inputstreamhelper/lib:/Users/user/Library/Application Support/Kodi/addons/script.module.pytz/lib:/Users/user/Library/Application Support/Kodi/addons/script.module.six/lib:/Applications/Kodi.app/Contents/Libraries/lib/python2.7/site-packages/setuptools-18.4-py2.7.egg:/Applications/Kodi.app/Contents/Libraries/lib/python2.7/site-packages/Pillow-3.0.0-py2.7-macosx-10.14-x86_64.egg:/Applications/Kodi.app/Contents/Libraries:/Applications/Kodi.app/Contents/Libraries/lib/python27.zip:/Applications/Kodi.app/Contents/Libraries/lib/python2.7:/Applications/Kodi.app/Contents/Libraries/lib/python2.7/site-packages:/Applications/Kodi.app/Contents/Libraries/lib/python2.7/plat-darwin:/Applications/Kodi.app/Contents/Libraries/lib/python2.7/plat-mac:/Applications/Kodi.app/Contents/Libraries/lib/python2.7/plat-mac/lib-scriptpackages:/Applications/Kodi.app/Contents/Libraries/lib/python2.7/lib-tk:/Applications/Kodi.app/Contents/Libraries/lib/python2.7/lib-old:/Applications/Kodi.app/Contents/Libraries/lib/python2.7/lib-dynload
  230. 2020-02-16 14:07:50.421 T:4569317376   DEBUG: CPythonInvoker(7, /Users/user/Library/Application Support/Kodi/addons/plugin.video.nba/main.py): entering source directory /Users/user/Library/Application Support/Kodi/addons/plugin.video.nba
  231. 2020-02-16 14:07:50.421 T:4569317376   DEBUG: CPythonInvoker(7, /Users/user/Library/Application Support/Kodi/addons/plugin.video.nba/main.py): instantiating addon using automatically obtained id of "plugin.video.nba" dependent on version 2.20.0 of the xbmc.python api
  232. 2020-02-16 14:07:50.610 T:140735163388672   DEBUG: ------ Window Init (DialogBusy.xml) ------
  233. 2020-02-16 14:07:50.717 T:4607549440   DEBUG: GetImageHash - unable to stat url https://nbadsdmt.akamaized.net/media/nba/nba/thumbs/dl/14510_pc.jpg
  234. 2020-02-16 14:07:50.972 T:4631015424   ERROR: EXCEPTION: XBMC is not playing any file
  235. 2020-02-16 14:07:51.803 T:4569317376   DEBUG: CAddonSettings[script.common.plugin.cache]: loading setting definitions
  236. 2020-02-16 14:07:51.803 T:4569317376   DEBUG: CAddonSettings[script.common.plugin.cache]: trying to load setting definitions from old format...
  237. 2020-02-16 14:07:51.817 T:4569317376   DEBUG: CAddonSettings[plugin.video.nba]: loading setting definitions
  238. 2020-02-16 14:07:51.817 T:4569317376   DEBUG: CAddonSettings[plugin.video.nba]: trying to load setting definitions from old format...
  239. 2020-02-16 14:07:51.837 T:4569317376   DEBUG: CAddonSettings[plugin.video.nba]: loading setting values
  240. 2020-02-16 14:07:51.839 T:4569317376   DEBUG: CAddonSettings[script.common.plugin.cache]: loading setting definitions
  241. 2020-02-16 14:07:51.839 T:4569317376   DEBUG: CAddonSettings[script.common.plugin.cache]: trying to load setting definitions from old format...
  242. 2020-02-16 14:07:51.979 T:4631015424   ERROR: EXCEPTION: XBMC is not playing any file
  243. 2020-02-16 14:07:53.854 T:4571361280   ERROR: Previous line repeats 1 times.
  244. 2020-02-16 14:07:53.854 T:4571361280    INFO: easy_acquire - Created session to http://www.msftncsi.com
  245. 2020-02-16 14:07:53.982 T:4631015424   ERROR: EXCEPTION: XBMC is not playing any file
  246. 2020-02-16 14:07:55.363 T:4569317376   ERROR: Previous line repeats 1 times.
  247. 2020-02-16 14:07:55.363 T:4569317376   DEBUG: [script.module.inputstreamhelper]: Platform information: ('Darwin', 'Users-Mac-mini.local', '14.5.0', 'Darwin Kernel Version 14.5.0: Wed Jul 29 02:26:53 PDT 2015; root:xnu-2782.40.9~1/RELEASE_X86_64', 'x86_64', '')
  248. 2020-02-16 14:07:55.363 T:4569317376   DEBUG: [script.module.inputstreamhelper]: jsonrpc payload: {'params': {'setting': u'network.usehttpproxy'}, 'jsonrpc': u'2.0', 'method': u'Settings.GetSettingValue', 'id': 1}
  249. 2020-02-16 14:07:55.364 T:4569317376   DEBUG: [script.module.inputstreamhelper]: jsonrpc response: {"id":1,"jsonrpc":"2.0","result":{"value":false}}
  250. 2020-02-16 14:07:55.372 T:4569317376   DEBUG: CAddonSettings[script.module.inputstreamhelper]: loading setting definitions
  251. 2020-02-16 14:07:55.372 T:4569317376   DEBUG: CAddonSettings[script.module.inputstreamhelper]: trying to load setting definitions from old format...
  252. 2020-02-16 14:07:55.381 T:140735163388672   DEBUG: ------ Window Deinit (Pointer.xml) ------
  253. 2020-02-16 14:07:55.389 T:4569317376   DEBUG: CAddonSettings[script.module.inputstreamhelper]: loading setting values
  254. 2020-02-16 14:07:55.392 T:4569317376   DEBUG: [script.module.inputstreamhelper]: jsonrpc payload: {'params': {'addonid': u'inputstream.adaptive'}, 'jsonrpc': u'2.0', 'method': u'Addons.GetAddonDetails', 'id': 1}
  255. 2020-02-16 14:07:55.395 T:4569317376   DEBUG: [script.module.inputstreamhelper]: jsonrpc response: {"id":1,"jsonrpc":"2.0","result":{"addon":{"addonid":"inputstream.adaptive","type":"kodi.inputstream"}}}
  256. 2020-02-16 14:07:55.395 T:4569317376   DEBUG: [script.module.inputstreamhelper]: inputstream.adaptive is installed.
  257. 2020-02-16 14:07:55.396 T:4569317376   DEBUG: [script.module.inputstreamhelper]: jsonrpc payload: {'params': {'properties': [u'enabled'], 'addonid': u'inputstream.adaptive'}, 'jsonrpc': u'2.0', 'method': u'Addons.GetAddonDetails', 'id': 1}
  258. 2020-02-16 14:07:55.396 T:4569317376   DEBUG: [script.module.inputstreamhelper]: jsonrpc response: {"id":1,"jsonrpc":"2.0","result":{"addon":{"addonid":"inputstream.adaptive","enabled":true,"type":"kodi.inputstream"}}}
  259. 2020-02-16 14:07:55.397 T:4569317376   DEBUG: [script.module.inputstreamhelper]: inputstream.adaptive 2.4.2 is enabled.
  260. 2020-02-16 14:07:55.398 T:4569317376   DEBUG: [script.module.inputstreamhelper]: inputstream.adaptive 2.4.2 is installed and enabled.
  261. 2020-02-16 14:07:55.410 T:4569317376   DEBUG: CAddonSettings[inputstream.adaptive]: loading setting definitions
  262. 2020-02-16 14:07:55.427 T:4569317376   DEBUG: Previous line repeats 3 times.
  263. 2020-02-16 14:07:55.427 T:4569317376   DEBUG: [script.module.inputstreamhelper]: Found Widevine binary at /Users/user/Library/Application Support/Kodi/cdm/libwidevinecdm.dylib
  264. 2020-02-16 14:07:55.430 T:4569317376   DEBUG: CAddonSettings[inputstream.adaptive]: loading setting definitions
  265. 2020-02-16 14:07:55.449 T:4569317376   DEBUG: Previous line repeats 1 times.
  266. 2020-02-16 14:07:55.449 T:4569317376   DEBUG: [script.module.inputstreamhelper]: Widevine update check was made on 2020-02-02T03:21:02
  267. 2020-02-16 14:07:55.459 T:4569317376    INFO: CPythonInvoker(7, /Users/user/Library/Application Support/Kodi/addons/plugin.video.nba/main.py): script successfully run
  268. 2020-02-16 14:07:55.459 T:4569317376   DEBUG: onExecutionDone(7, /Users/user/Library/Application Support/Kodi/addons/plugin.video.nba/main.py)
  269. 2020-02-16 14:07:55.481 T:140735163388672   DEBUG: ------ Window Deinit (DialogBusy.xml) ------
  270. 2020-02-16 14:07:55.482 T:4446392320   DEBUG: Thread scriptobs 4446392320 terminating
  271. 2020-02-16 14:07:55.493 T:140735163388672   DEBUG: CPlayerCoreFactory::GetPlayers(https://neuclnbavodns.akamaized.net/nlds_vod/nba/vod/2020/02/10/drm/nlncp/21900793/bf204070-7d83-3de4-4080-9c69d05c25c8/v1/stream/2_21900793_cha_det_2019_b_whole_1_pc.mp4.mpd?h=9f8941cd4b8af14663d4b798330340c3.1581890874948&hdnea=exp=1581890934~acl=/*~hmac=F7C5E12EDF1F6C0152F750944EBF0F34AC48F0D2514794521E22C67D8A0D545F&nltid=nba&nltdt=0&uid=13977569)
  272. 2020-02-16 14:07:55.494 T:140735163388672   DEBUG: CPlayerSelectionRule::GetPlayers: considering rule: un-named
  273. 2020-02-16 14:07:55.494 T:140735163388672   DEBUG: CPlayerSelectionRule::GetPlayers: matches rule: un-named
  274. 2020-02-16 14:07:55.494 T:140735163388672   DEBUG: CPlayerSelectionRule::GetPlayers: considering rule: un-named
  275. 2020-02-16 14:07:55.494 T:140735163388672   DEBUG: CPlayerSelectionRule::GetPlayers: matches rule: un-named
  276. 2020-02-16 14:07:55.494 T:140735163388672   DEBUG: CPlayerSelectionRule::GetPlayers: adding player: “vlc” for rule: un-named
  277. 2020-02-16 14:07:55.494 T:140735163388672   DEBUG: CPlayerSelectionRule::GetPlayers: considering rule: un-named
  278. 2020-02-16 14:07:55.494 T:140735163388672   DEBUG: CPlayerSelectionRule::GetPlayers: considering rule: system rules
  279. 2020-02-16 14:07:55.494 T:140735163388672   DEBUG: CPlayerSelectionRule::GetPlayers: matches rule: system rules
  280. 2020-02-16 14:07:55.494 T:140735163388672   DEBUG: CPlayerSelectionRule::GetPlayers: considering rule: mms/udp
  281. 2020-02-16 14:07:55.494 T:140735163388672   DEBUG: CPlayerSelectionRule::GetPlayers: considering rule: lastfm/shout
  282. 2020-02-16 14:07:55.494 T:140735163388672   DEBUG: CPlayerSelectionRule::GetPlayers: considering rule: rtmp
  283. 2020-02-16 14:07:55.494 T:140735163388672   DEBUG: CPlayerSelectionRule::GetPlayers: considering rule: rtsp
  284. 2020-02-16 14:07:55.495 T:140735163388672   DEBUG: CPlayerSelectionRule::GetPlayers: considering rule: streams
  285. 2020-02-16 14:07:55.495 T:140735163388672   DEBUG: CPlayerSelectionRule::GetPlayers: matches rule: streams
  286. 2020-02-16 14:07:55.495 T:140735163388672   DEBUG: CPlayerSelectionRule::GetPlayers: considering rule: aacp/sdp
  287. 2020-02-16 14:07:55.495 T:140735163388672   DEBUG: CPlayerSelectionRule::GetPlayers: considering rule: mp2
  288. 2020-02-16 14:07:55.495 T:140735163388672   DEBUG: CPlayerSelectionRule::GetPlayers: considering rule: dvd
  289. 2020-02-16 14:07:55.495 T:140735163388672   DEBUG: CPlayerSelectionRule::GetPlayers: considering rule: dvdimage
  290. 2020-02-16 14:07:55.495 T:140735163388672   DEBUG: CPlayerSelectionRule::GetPlayers: considering rule: sdp/asf
  291. 2020-02-16 14:07:55.495 T:140735163388672   DEBUG: CPlayerSelectionRule::GetPlayers: considering rule: nsv
  292. 2020-02-16 14:07:55.495 T:140735163388672   DEBUG: CPlayerSelectionRule::GetPlayers: considering rule: radio
  293. 2020-02-16 14:07:55.496 T:140735163388672   DEBUG: CPlayerCoreFactory::GetPlayers: matched 1 rules with players
  294. 2020-02-16 14:07:55.496 T:140735163388672   DEBUG: CPlayerCoreFactory::GetPlayers: adding videodefaultplayer (VideoPlayer)
  295. 2020-02-16 14:07:55.496 T:140735163388672   DEBUG: CPlayerCoreFactory::GetPlayers: for video=1, audio=0
  296. 2020-02-16 14:07:55.496 T:140735163388672   DEBUG: CPlayerCoreFactory::GetPlayers: for video=1, audio=1
  297. 2020-02-16 14:07:55.496 T:140735163388672   DEBUG: CPlayerCoreFactory::GetPlayers: added 2 players
  298. 2020-02-16 14:07:55.496 T:140735163388672  NOTICE: ExternalPlayer Filename: /Applications/VLC.app/Contents/MacOS/VLC
  299. 2020-02-16 14:07:55.496 T:140735163388672  NOTICE: ExternalPlayer Tweaks: hideconsole (false), hidexbmc (true), islauncher (false), warpcursor ()
  300. 2020-02-16 14:07:55.496 T:140735163388672  NOTICE: OpenFile: https://neuclnbavodns.akamaized.net/nlds_vod/nba/vod/2020/02/10/drm/nlncp/21900793/bf204070-7d83-3de4-4080-9c69d05c25c8/v1/stream/2_21900793_cha_det_2019_b_whole_1_pc.mp4.mpd?h=9f8941cd4b8af14663d4b798330340c3.1581890874948&hdnea=exp=1581890934~acl=/*~hmac=F7C5E12EDF1F6C0152F750944EBF0F34AC48F0D2514794521E22C67D8A0D545F&nltid=nba&nltdt=0&uid=13977569
  301. 2020-02-16 14:07:55.496 T:4446392320   DEBUG: Thread ExternalPlayer start, auto delete: false
  302. 2020-02-16 14:07:55.496 T:4446392320  NOTICE: Process: Player : /Applications/VLC.app/Contents/MacOS/VLC
  303. 2020-02-16 14:07:55.496 T:4446392320  NOTICE: Process: File   : https://neuclnbavodns.akamaized.net/nlds_vod/nba/vod/2020/02/10/drm/nlncp/21900793/bf204070-7d83-3de4-4080-9c69d05c25c8/v1/stream/2_21900793_cha_det_2019_b_whole_1_pc.mp4.mpd?h=9f8941cd4b8af14663d4b798330340c3.1581890874948&hdnea=exp=1581890934~acl=/*~hmac=F7C5E12EDF1F6C0152F750944EBF0F34AC48F0D2514794521E22C67D8A0D545F&nltid=nba&nltdt=0&uid=13977569
  304. 2020-02-16 14:07:55.496 T:4446392320  NOTICE: Process: Content:
  305. 2020-02-16 14:07:55.496 T:4446392320  NOTICE: Process: Args   : --video-on-top --play-and-exit
  306. 2020-02-16 14:07:55.497 T:4446392320  NOTICE: Process: Start
  307. 2020-02-16 14:07:55.497 T:4446392320  NOTICE: Process: Hiding Kodi window
  308. 2020-02-16 14:07:55.529 T:4569317376    INFO: Python interpreter stopped
  309. 2020-02-16 14:07:55.529 T:4569317376   DEBUG: Thread LanguageInvoker 4569317376 terminating
  310. 2020-02-16 14:07:55.535 T:140735163388672   DEBUG: Inhibiting OS screen saver
  311. 2020-02-16 14:07:55.650 T:4537708544   DEBUG: CCoreAudioStream::Close: Restoring original physical format for stream 0x002e. ([lpcm] Mixable Interleaved 2 Channel 32-bit Signed Integer BE (44100Hz))
  312. 2020-02-16 14:07:55.651 T:4537708544   DEBUG: CCoreAudioStream::SetPhysicalFormat: Physical format for stream 0x002e. now active ([lpcm] Mixable Interleaved 2 Channel 32-bit Signed Integer BE (44100Hz))
  313. 2020-02-16 14:07:55.651 T:4537708544   DEBUG: CCoreAudioStream::Close: Closed stream 0x002e.
  314. 2020-02-16 14:07:55.654 T:4446392320   DEBUG: OnPlayBackStarted: CApplication::OnPlayBackStarted
  315. 2020-02-16 14:07:55.654 T:4446392320   DEBUG: OnAVStarted: CApplication::OnAVStarted
  316. 2020-02-16 14:07:55.655 T:4446392320  NOTICE: ExecuteAppLinux: "/Applications/VLC.app/Contents/MacOS/VLC" --video-on-top --play-and-exit "https://neuclnbavodns.akamaized.net/nlds_vod/nba/vod/2020/02/10/drm/nlncp/21900793/bf204070-7d83-3de4-4080-9c69d05c25c8/v1/stream/2_21900793_cha_det_2019_b_whole_1_pc.mp4.mpd?h=9f8941cd4b8af14663d4b798330340c3.1581890874948&hdnea=exp=1581890934~acl=/*~hmac=F7C5E12EDF1F6C0152F750944EBF0F34AC48F0D2514794521E22C67D8A0D545F&nltid=nba&nltdt=0&uid=13977569"
  317. 2020-02-16 14:07:55.661 T:140735163388672   DEBUG: CVideoGUIInfo::InitCurrentItem(plugin://plugin.video.nba/?game_state=3&name=Full+game%2C+home+feed+%28Pistons%29&url=&start_time=1581379220000&video_id=0021900793&video_type=archive&mode=playgame&duration=8222000&video_ishomefeed=1)
  318. 2020-02-16 14:07:55.695 T:140735163388672   DEBUG: CPlayerGUIInfo::InitCurrentItem(plugin://plugin.video.nba/?game_state=3&name=Full+game%2C+home+feed+%28Pistons%29&url=&start_time=1581379220000&video_id=0021900793&video_type=archive&mode=playgame&duration=8222000&video_ishomefeed=1)
  319. 2020-02-16 14:07:55.796 T:140735163388672   DEBUG: ------ Window Init (DialogBusy.xml) ------
  320. 2020-02-16 14:07:55.838 T:140735163388672   DEBUG: ------ Window Deinit (DialogBusy.xml) ------
RAW Paste Data
We use cookies for various purposes including analytics. By continuing to use Pastebin, you agree to our use of cookies as described in the Cookies Policy. OK, I Understand
Top